Kezdőlap
METAR-TAF:

METAR-TAF

Repülőterek :

Tri-Cities Regional Airport

Bristol-Johnson City, Tennessee, Amerikai Egyesült Államok

földrajzi szélesség: 36-28-47N, földrajzi hosszúság: 082-23-56W, magasság: 463 m

Jelenlegi meteorológiai megfigyelések

A jelentés 20 perccel ezelõtt készült, 07:53 UTC
Szélcsend
Hőmérséklet 17°C
Páratartalom 100%
Légköri nyomás 1016 hPa
Látótávolság: 16.1 km
Derült ég

METAR: KTRI 140753Z 00000KT 10SM CLR 17/17 A3001 RMK AO2 SLP137 T01720167

Idő: 04:13 (08:13 UTC)

Előrejelzés

A jelentés 2 órával és 39 perccel ezelõtt készült, 05:34 UTC
Az előrejelzés 14-én 06 óra UTC és 15-én 06 óra UTC között érvényes
Nyugati szél 6 kt
Látótávolság: 10 km
Szórványos felhőzet 6000 lábon

TAF: KTRI 140534Z 1406/1506 27006KT P6SM SCT060

Meteorológiai megfigyelések és előrejelzések több, mint 4000 repülőtéren (METAR és TAF jelentéseket).

A térképen piros és sárga pontok jelzik az elérhető meteorológiai állomásokat.

Mozgassa az egeret a pont fölött, hogy megjelenjen az állomás neve.

Azután kattintson az időjárási megfigyelések és előrejelzések megtekintéséhez.

A térkép megváltoztatása: kattintson a fekete keresztel jelölt zöld gombra ráközelítéshez, a vonallal jelölt zöld gombra távolításhoz, vagy a zöld nyilakra a szomszédos térképek eléréséhez.


METAR-TAF: